createdAt,value
2018-08-22T00:00:05.481Z,26.3
2018-08-22T00:02:05.244Z,26.2
2018-08-22T00:04:04.976Z,26.1
2018-08-22T00:06:10.297Z,26.2
2018-08-22T00:08:05.176Z,26.2
2018-08-22T00:10:04.912Z,26.2
2018-08-22T00:12:08.100Z,26.3
2018-08-22T00:14:04.775Z,26.3
2018-08-22T00:16:05.515Z,26.3
2018-08-22T00:18:05.453Z,26.3
2018-08-22T00:20:05.149Z,26.3
2018-08-22T00:22:04.851Z,26.3
2018-08-22T00:24:05.542Z,26.3
2018-08-22T00:26:05.291Z,26.3
2018-08-22T00:28:05.527Z,26.3
2018-08-22T00:30:05.322Z,26.3
2018-08-22T00:32:04.995Z,26.3
2018-08-22T00:36:04.665Z,26.3
2018-08-22T00:38:05.285Z,26.2
2018-08-22T00:40:05.013Z,26.2
2018-08-22T00:42:04.767Z,26.2
2018-08-22T00:44:04.993Z,26.2
2018-08-22T00:46:04.684Z,26.2
2018-08-22T00:48:05.375Z,26.3
2018-08-22T00:50:10.149Z,26.2
2018-08-22T00:52:04.895Z,26.2
2018-08-22T00:54:05.095Z,26.2
2018-08-22T00:56:05.313Z,26.1
2018-08-22T00:58:05.060Z,26.2
2018-08-22T01:00:07.382Z,26.1
2018-08-22T01:02:04.657Z,26.1
2018-08-22T01:04:05.412Z,26
2018-08-22T01:06:05.110Z,25.8
2018-08-22T01:08:07.350Z,25.6
2018-08-22T01:10:05.110Z,25.6
2018-08-22T01:12:04.797Z,25.6
2018-08-22T01:14:08.002Z,25.9
2018-08-22T01:16:04.688Z,25.8
2018-08-22T01:18:05.128Z,25.7
2018-08-22T01:20:04.851Z,25.7
2018-08-22T01:22:05.135Z,25.8
2018-08-22T01:24:09.886Z,25.7
2018-08-22T01:26:08.177Z,25.9
2018-08-22T01:28:07.412Z,25.9
2018-08-22T01:30:05.055Z,25.9
2018-08-22T01:32:04.697Z,25.9
2018-08-22T01:34:04.880Z,26
2018-08-22T01:36:04.606Z,25.9
2018-08-22T01:38:05.240Z,25.9
2018-08-22T01:40:04.956Z,26
2018-08-22T01:42:04.653Z,26
2018-08-22T01:44:05.334Z,26
2018-08-22T01:46:05.034Z,26.1
2018-08-22T01:48:07.218Z,26
2018-08-22T01:50:04.837Z,26
2018-08-22T01:52:05.477Z,26.1
2018-08-22T01:54:05.179Z,26.1
2018-08-22T01:56:04.989Z,26
2018-08-22T01:58:04.651Z,26.1
2018-08-22T02:00:05.325Z,26
2018-08-22T02:02:04.996Z,26.1
2018-08-22T02:04:04.863Z,26.1
2018-08-22T02:06:04.653Z,26
2018-08-22T02:08:04.865Z,26.1
2018-08-22T02:10:05.523Z,26
2018-08-22T02:12:05.192Z,26
2018-08-22T02:14:04.959Z,26
2018-08-22T02:16:05.160Z,26
2018-08-22T02:18:05.067Z,25.9
2018-08-22T02:20:04.801Z,25.9
2018-08-22T02:22:05.537Z,25.9
2018-08-22T02:24:05.227Z,25.9
2018-08-22T02:26:04.897Z,25.9
2018-08-22T02:28:07.153Z,25.9
2018-08-22T02:30:04.808Z,25.9
2018-08-22T02:32:08.011Z,25.9
2018-08-22T02:34:04.677Z,25.9
2018-08-22T02:36:04.874Z,25.9
2018-08-22T02:38:07.586Z,25.9
2018-08-22T02:40:07.834Z,25.9
2018-08-22T02:42:05.535Z,25.9
2018-08-22T02:44:05.233Z,25.9
2018-08-22T02:46:05.469Z,25.8
2018-08-22T02:48:05.143Z,25.9
2018-08-22T02:50:09.879Z,25.8
2018-08-22T02:52:05.567Z,25.8
2018-08-22T02:54:07.794Z,25.8
2018-08-22T02:56:05.457Z,25.8
2018-08-22T02:58:05.116Z,25.8
2018-08-22T03:00:09.946Z,25.8
2018-08-22T03:02:05.173Z,25.8
2018-08-22T03:04:04.843Z,25.8
2018-08-22T03:06:05.518Z,25.8
2018-08-22T03:08:07.754Z,25.8
2018-08-22T03:10:05.423Z,25.7
2018-08-22T03:12:05.183Z,25.7
2018-08-22T03:14:04.904Z,25.8
2018-08-22T03:16:05.616Z,25.7
2018-08-22T03:18:05.075Z,25.7
2018-08-22T03:20:07.357Z,25.7
2018-08-22T03:22:05.042Z,25.7
2018-08-22T03:24:05.363Z,25.7
2018-08-22T03:26:05.055Z,25.7
2018-08-22T03:28:05.631Z,25.7
2018-08-22T03:30:04.848Z,25.7
2018-08-22T03:32:05.623Z,25.7
2018-08-22T03:34:05.353Z,25.7
2018-08-22T03:36:07.696Z,25.7
2018-08-22T03:38:05.426Z,25.7
2018-08-22T03:40:05.145Z,25.7
2018-08-22T03:42:04.882Z,25.7
2018-08-22T03:44:05.530Z,25.7
2018-08-22T03:46:07.744Z,25.7
2018-08-22T03:48:05.435Z,25.7
2018-08-22T03:50:07.829Z,25.7
2018-08-22T03:52:05.474Z,25.7
2018-08-22T03:54:07.636Z,25.7
2018-08-22T03:56:07.914Z,25.7
2018-08-22T03:58:10.230Z,25.6
2018-08-22T04:00:04.887Z,25.6
2018-08-22T04:02:05.640Z,25.6
2018-08-22T04:04:05.307Z,25.6
2018-08-22T04:06:07.505Z,25.6
2018-08-22T04:08:05.212Z,25.6
2018-08-22T04:10:04.951Z,25.6
2018-08-22T04:12:05.692Z,25.6
2018-08-22T04:14:05.390Z,25.6
2018-08-22T04:16:05.099Z,25.6
2018-08-22T04:18:05.553Z,25.6
2018-08-22T04:20:05.260Z,25.6
2018-08-22T04:22:07.956Z,25.5
2018-08-22T04:24:05.166Z,25.5
2018-08-22T04:26:04.886Z,25.6
2018-08-22T04:28:05.577Z,25.5
2018-08-22T04:30:10.379Z,25.5
2018-08-22T04:32:10.712Z,25.5
2018-08-22T04:34:05.206Z,25.5
2018-08-22T04:36:10.499Z,25.5
2018-08-22T04:38:07.721Z,25.5
2018-08-22T04:40:12.724Z,25.5
2018-08-22T04:42:05.419Z,25.5
2018-08-22T04:44:05.156Z,25.5
2018-08-22T04:46:08.000Z,25.5
2018-08-22T04:48:07.189Z,25.4
2018-08-22T04:50:05.005Z,25.4
2018-08-22T04:52:04.796Z,25.4
2018-08-22T04:54:07.575Z,25.4
2018-08-22T04:56:10.312Z,25.4
2018-08-22T04:58:05.003Z,25.4
2018-08-22T05:00:04.820Z,25.4
2018-08-22T05:02:05.501Z,25.5
2018-08-22T05:04:04.704Z,25.4
2018-08-22T05:06:04.951Z,25.5
2018-08-22T05:08:04.893Z,25.4
2018-08-22T05:10:05.541Z,25.2
2018-08-22T05:12:04.836Z,25.2
2018-08-22T05:14:05.600Z,25
2018-08-22T05:16:07.394Z,25.2
2018-08-22T05:18:04.767Z,25.2
2018-08-22T05:20:07.501Z,25.2
2018-08-22T05:22:05.210Z,25.2
2018-08-22T05:24:07.399Z,25.1
2018-08-22T05:26:10.159Z,25.3
2018-08-22T05:28:04.851Z,25.3
2018-08-22T05:30:05.121Z,25.3
2018-08-22T05:32:05.043Z,25.3
2018-08-22T05:34:07.281Z,25.3
2018-08-22T05:36:05.009Z,25.3
2018-08-22T05:38:07.238Z,25.3
2018-08-22T05:40:04.979Z,25.3
2018-08-22T05:42:04.632Z,25.3
2018-08-22T05:44:07.428Z,25.3
2018-08-22T05:46:07.631Z,25.3
2018-08-22T05:48:05.375Z,25.3
2018-08-22T05:50:05.168Z,25.3
2018-08-22T05:52:04.865Z,25.4
2018-08-22T05:54:05.131Z,25.4
2018-08-22T05:56:04.819Z,25.4
2018-08-22T05:58:08.046Z,25.5
2018-08-22T06:00:04.685Z,25.4
2018-08-22T06:02:13.054Z,25.5
2018-08-22T06:04:04.717Z,25.6
2018-08-22T06:06:15.618Z,25.5
2018-08-22T06:08:05.380Z,25.6
2018-08-22T06:10:10.114Z,25.6
2018-08-22T06:12:04.815Z,25.6
2018-08-22T06:14:05.582Z,25.6
2018-08-22T06:16:07.801Z,25.7
2018-08-22T06:18:07.201Z,25.7
2018-08-22T06:20:04.915Z,25.6
2018-08-22T06:22:10.687Z,25.7
2018-08-22T06:24:05.387Z,25.7
2018-08-22T06:26:07.706Z,25.7
2018-08-22T06:28:05.395Z,25.8
2018-08-22T06:30:04.888Z,25.8
2018-08-22T06:32:08.123Z,25.8
2018-08-22T06:34:07.334Z,25.8
2018-08-22T06:36:05.103Z,25.8
2018-08-22T06:38:07.387Z,25.8
2018-08-22T06:40:05.166Z,25.8
2018-08-22T06:42:04.890Z,25.8
2018-08-22T06:44:05.360Z,25.9
2018-08-22T06:46:04.824Z,25.9
2018-08-22T06:48:05.549Z,25.9
2018-08-22T06:50:05.295Z,25.9
2018-08-22T06:52:07.601Z,26
2018-08-22T06:54:05.304Z,26
2018-08-22T06:56:05.003Z,26
2018-08-22T06:58:07.189Z,26.1
2018-08-22T07:00:04.903Z,26.1
2018-08-22T07:02:05.595Z,26
2018-08-22T07:04:05.316Z,26.1
2018-08-22T07:06:05.025Z,26.2
2018-08-22T07:08:04.748Z,26.2
2018-08-22T07:10:07.234Z,26.2
2018-08-22T07:12:04.932Z,26.2
2018-08-22T07:14:07.165Z,26.1
2018-08-22T07:16:07.938Z,26.2
2018-08-22T07:18:04.861Z,26.2
2018-08-22T07:20:05.598Z,26.2
2018-08-22T07:22:05.326Z,26.3
2018-08-22T07:24:10.600Z,26.3
2018-08-22T07:26:07.877Z,26.4
2018-08-22T07:28:05.215Z,26.3
2018-08-22T07:30:10.322Z,26.3
2018-08-22T07:32:05.572Z,26.3
2018-08-22T07:34:05.329Z,26.2
2018-08-22T07:36:05.034Z,26.3
2018-08-22T07:38:04.701Z,26.3
2018-08-22T07:40:07.657Z,26.3
2018-08-22T07:42:09.943Z,26.3
2018-08-22T07:44:05.211Z,26.3
2018-08-22T07:46:04.989Z,26.3
2018-08-22T07:48:04.885Z,26.4
2018-08-22T07:50:05.571Z,26.4
2018-08-22T07:52:05.980Z,26.3
2018-08-22T07:54:04.911Z,26.4
2018-08-22T07:56:07.146Z,26.4
2018-08-22T07:58:07.401Z,26.4
2018-08-22T08:00:05.122Z,26.5
2018-08-22T08:02:05.551Z,26.5
2018-08-22T08:04:05.406Z,26.5
2018-08-22T08:06:05.603Z,26.4
2018-08-22T08:08:04.788Z,26.4
2018-08-22T08:10:05.465Z,26.4
2018-08-22T08:12:06.139Z,26.5
2018-08-22T08:14:04.791Z,26.5
2018-08-22T08:16:08.023Z,26.6
2018-08-22T08:18:04.936Z,26.6
2018-08-22T08:20:05.675Z,26.6
2018-08-22T08:22:04.926Z,26.6
2018-08-22T08:24:07.158Z,26.6
2018-08-22T08:26:04.883Z,26.6
2018-08-22T08:28:04.714Z,26.6
2018-08-22T08:30:05.397Z,26.7
2018-08-22T08:32:05.580Z,26.7
2018-08-22T08:34:05.250Z,26.7
2018-08-22T08:36:05.102Z,26.6
2018-08-22T08:38:05.052Z,26.7
2018-08-22T08:40:04.769Z,26.8
2018-08-22T08:42:05.496Z,26.6
2018-08-22T08:44:10.294Z,26.7
2018-08-22T08:46:05.071Z,26.8
2018-08-22T08:48:04.844Z,26.9
2018-08-22T08:50:05.539Z,26.7
2018-08-22T08:52:05.318Z,26.9
2018-08-22T08:54:05.016Z,26.9
2018-08-22T08:56:04.741Z,26.9
2018-08-22T08:58:10.530Z,26.8
2018-08-22T09:00:05.201Z,26.8
2018-08-22T09:02:04.862Z,26.7
2018-08-22T09:04:10.255Z,26.8
2018-08-22T09:06:04.983Z,26.8
2018-08-22T09:08:04.641Z,26.9
2018-08-22T09:10:05.296Z,26.9
2018-08-22T09:12:04.989Z,26.9
2018-08-22T09:14:04.828Z,26.9
2018-08-22T09:16:08.031Z,26.9
2018-08-22T09:18:07.469Z,26.9
2018-08-22T09:20:05.163Z,26.9
2018-08-22T09:22:07.429Z,27.1
2018-08-22T09:24:05.431Z,27.1
2018-08-22T09:26:08.036Z,27
2018-08-22T09:28:04.809Z,27
2018-08-22T09:30:05.426Z,27
2018-08-22T09:32:05.121Z,27
2018-08-22T09:34:07.375Z,27.1
2018-08-22T09:36:05.109Z,27
2018-08-22T09:38:04.790Z,27
2018-08-22T09:40:05.072Z,26.9
2018-08-22T09:42:04.654Z,26.9
2018-08-22T09:44:05.448Z,26.9
2018-08-22T09:46:04.767Z,27
2018-08-22T09:48:04.655Z,26.9
2018-08-22T09:50:05.471Z,26.9
2018-08-22T09:52:05.240Z,26.9
2018-08-22T09:54:04.936Z,27
2018-08-22T09:56:04.647Z,26.9
2018-08-22T09:58:07.913Z,26.8
2018-08-22T10:00:04.876Z,26.8
2018-08-22T10:02:09.881Z,26.8
2018-08-22T10:04:05.589Z,26.8
2018-08-22T10:06:05.363Z,26.9
2018-08-22T10:08:05.183Z,26.9
2018-08-22T10:10:07.355Z,27
2018-08-22T10:12:05.058Z,27
2018-08-22T10:14:04.811Z,27
2018-08-22T10:16:07.821Z,27
2018-08-22T10:18:07.809Z,27
2018-08-22T10:20:05.597Z,27
2018-08-22T10:22:07.833Z,27.1
2018-08-22T10:24:05.508Z,27
2018-08-22T10:26:04.946Z,27
2018-08-22T10:28:04.610Z,27.1
2018-08-22T10:30:10.372Z,27
2018-08-22T10:32:07.602Z,27.1
2018-08-22T10:34:05.463Z,27.1
2018-08-22T10:36:05.256Z,27.1
2018-08-22T10:38:04.935Z,27.1
2018-08-22T10:40:05.590Z,27.1
2018-08-22T10:42:04.803Z,27
2018-08-22T10:44:05.471Z,27
2018-08-22T10:46:05.145Z,26.9
2018-08-22T10:48:04.913Z,26.8
2018-08-22T10:50:05.140Z,26.8
2018-08-22T10:52:04.814Z,26.7
2018-08-22T10:54:10.602Z,26.6
2018-08-22T10:56:04.762Z,26.6
2018-08-22T10:58:10.514Z,26.9
2018-08-22T11:00:05.259Z,26.9
2018-08-22T11:02:05.067Z,26.9
2018-08-22T11:04:05.262Z,26.8
2018-08-22T11:06:04.940Z,26.9
2018-08-22T11:08:04.626Z,27
2018-08-22T11:10:05.376Z,27.1
2018-08-22T11:12:05.316Z,27
2018-08-22T11:14:05.038Z,27.1
2018-08-22T11:16:04.846Z,27.1
2018-08-22T11:18:05.158Z,27
2018-08-22T11:20:04.877Z,27.1
2018-08-22T11:22:05.589Z,27.2
2018-08-22T11:24:05.275Z,27.2
2018-08-22T11:26:04.994Z,27.2
2018-08-22T11:28:06.013Z,27.2
2018-08-22T11:30:05.221Z,27.2
2018-08-22T11:32:04.989Z,27.3
2018-08-22T11:34:09.778Z,27.2
2018-08-22T11:36:07.168Z,27.2
2018-08-22T11:38:04.918Z,27.2
2018-08-22T11:40:05.596Z,27.3
2018-08-22T11:42:05.751Z,27.2
2018-08-22T11:44:05.451Z,27.2
2018-08-22T11:46:04.719Z,27.2
2018-08-22T11:48:07.164Z,27.3
2018-08-22T11:50:07.391Z,27.3
2018-08-22T11:52:05.072Z,27.3
2018-08-22T11:54:04.779Z,27.3
2018-08-22T11:56:05.467Z,27.2
2018-08-22T11:58:05.847Z,27.3
2018-08-22T12:00:05.588Z,27.3
2018-08-22T12:02:05.313Z,27.3
2018-08-22T12:04:05.058Z,27.3
2018-08-22T12:06:04.752Z,27.3
2018-08-22T12:08:05.419Z,27.3
2018-08-22T12:10:07.880Z,27.3
2018-08-22T12:12:07.180Z,27.3
2018-08-22T12:14:09.938Z,27.3
2018-08-22T12:16:08.142Z,27.4
2018-08-22T12:18:05.579Z,27.3
2018-08-22T12:20:07.846Z,27.3
2018-08-22T12:22:05.060Z,27.3
2018-08-22T12:24:05.019Z,27.3
2018-08-22T12:26:04.948Z,27.3
2018-08-22T12:28:09.708Z,27.4
2018-08-22T12:30:07.989Z,27.4
2018-08-22T12:32:11.273Z,27.4
2018-08-22T12:34:20.151Z,27.4
2018-08-22T12:36:04.968Z,27.4
2018-08-22T12:38:04.657Z,27.4
2018-08-22T12:40:05.406Z,27.4
2018-08-22T12:42:05.189Z,27.4
2018-08-22T12:44:04.930Z,27.4
2018-08-22T12:46:04.638Z,27.5
2018-08-22T12:48:07.402Z,27.4
2018-08-22T12:50:05.570Z,27.4
2018-08-22T12:52:10.326Z,27.5
2018-08-22T12:54:05.585Z,27.5
2018-08-22T12:56:07.305Z,27.5
2018-08-22T12:58:05.003Z,27.5
2018-08-22T13:00:04.810Z,27.5
2018-08-22T13:02:05.584Z,27.5
2018-08-22T13:04:05.267Z,27.5
2018-08-22T13:06:12.529Z,27.5
2018-08-22T13:08:07.271Z,27.6
2018-08-22T13:10:07.535Z,27.6
2018-08-22T13:12:10.302Z,27.5
2018-08-22T13:14:05.551Z,27.6
2018-08-22T13:16:05.355Z,27.6
2018-08-22T13:18:05.468Z,27.6
2018-08-22T13:20:05.193Z,27.6
2018-08-22T13:22:07.609Z,27.6
2018-08-22T13:24:07.916Z,27.6
2018-08-22T13:26:05.635Z,27.6
2018-08-22T13:28:07.932Z,27.6
2018-08-22T13:30:05.246Z,27.6
2018-08-22T13:32:05.060Z,27.6
2018-08-22T13:34:04.738Z,27.6
2018-08-22T13:36:05.709Z,27.7
2018-08-22T13:38:05.051Z,27.6
2018-08-22T13:40:04.699Z,27.6
2018-08-22T13:42:08.919Z,27.6
2018-08-22T13:44:04.852Z,27.6
2018-08-22T13:46:04.675Z,27.7
2018-08-22T13:48:07.868Z,27.6
2018-08-22T13:50:05.676Z,27.6
2018-08-22T13:52:05.358Z,27.7
2018-08-22T13:54:05.051Z,27.7
2018-08-22T13:56:07.964Z,27.7
2018-08-22T13:58:07.827Z,27.7
2018-08-22T14:00:05.508Z,27.7
2018-08-22T14:02:05.229Z,27.7
2018-08-22T14:04:04.939Z,27.7
2018-08-22T14:06:04.625Z,27.7
2018-08-22T14:08:05.401Z,27.8
2018-08-22T14:10:05.121Z,27.8
2018-08-22T14:12:07.923Z,27.7
2018-08-22T14:14:04.697Z,27.7
2018-08-22T14:16:05.556Z,27.7
2018-08-22T14:18:04.992Z,27.7
2018-08-22T14:20:05.065Z,27.6
2018-08-22T14:22:05.394Z,27.6
2018-08-22T14:24:05.135Z,27.7
2018-08-22T14:26:07.607Z,27.6
2018-08-22T14:28:07.814Z,27.6
2018-08-22T14:30:04.655Z,27.6
2018-08-22T14:32:10.464Z,27.6
2018-08-22T14:34:05.155Z,27.6
2018-08-22T14:36:07.458Z,27.6
2018-08-22T14:38:10.240Z,27.6
2018-08-22T14:40:04.925Z,27.6
2018-08-22T14:42:05.613Z,27.6
2018-08-22T14:44:05.385Z,27.6
2018-08-22T14:46:07.625Z,27.7
2018-08-22T14:48:05.320Z,27.6
2018-08-22T14:50:07.622Z,27.5
2018-08-22T14:52:05.272Z,27.5
2018-08-22T14:54:04.932Z,27.6
2018-08-22T14:56:04.783Z,27.6
2018-08-22T14:58:12.540Z,27.6
2018-08-22T15:00:07.793Z,27.7
2018-08-22T15:02:04.996Z,27.6
2018-08-22T15:04:05.347Z,27.5
2018-08-22T15:06:05.108Z,27.6
2018-08-22T15:08:04.804Z,27.5
2018-08-22T15:10:05.480Z,27.5
2018-08-22T15:12:05.155Z,27.6
2018-08-22T15:14:04.839Z,27.5
2018-08-22T15:16:05.503Z,27.5
2018-08-22T15:18:05.422Z,27.4
2018-08-22T15:20:05.642Z,27.4
2018-08-22T15:22:05.382Z,27.5
2018-08-22T15:24:08.109Z,27.4
2018-08-22T15:26:04.785Z,27.4
2018-08-22T15:28:05.477Z,27.4
2018-08-22T15:30:04.826Z,27.4
2018-08-22T15:32:05.600Z,27.4
2018-08-22T15:34:07.967Z,27.4
2018-08-22T15:36:04.741Z,27.4
2018-08-22T15:38:05.436Z,27.4
2018-08-22T15:40:10.637Z,27.5
2018-08-22T15:42:04.873Z,27.5
2018-08-22T15:44:05.568Z,27.5
2018-08-22T15:46:05.302Z,27.4
2018-08-22T15:48:05.510Z,27.5
2018-08-22T15:50:05.237Z,27.5
2018-08-22T15:52:05.088Z,27.5
2018-08-22T15:54:12.995Z,27.5
2018-08-22T15:56:04.648Z,27.5
2018-08-22T15:58:05.541Z,27.5
2018-08-22T16:00:05.451Z,27.6
2018-08-22T16:02:05.338Z,27.6
2018-08-22T16:04:07.591Z,27.5
2018-08-22T16:06:05.310Z,27.6
2018-08-22T16:08:05.280Z,27.5
2018-08-22T16:10:07.499Z,27.6
2018-08-22T16:12:08.166Z,27.5
2018-08-22T16:14:04.821Z,27.5
2018-08-22T16:16:05.615Z,27.5
2018-08-22T16:18:05.531Z,27.5
2018-08-22T16:20:05.196Z,27.5
2018-08-22T16:22:05.095Z,27.7
2018-08-22T16:24:07.336Z,27.8
2018-08-22T16:26:05.357Z,27.8
2018-08-22T16:28:05.336Z,27.8
2018-08-22T16:30:05.191Z,27.9
2018-08-22T16:32:04.967Z,27.9
2018-08-22T16:34:05.223Z,28
2018-08-22T16:36:05.518Z,27.9
2018-08-22T16:38:05.193Z,28
2018-08-22T16:40:04.898Z,28
2018-08-22T16:42:08.149Z,28
2018-08-22T16:44:04.840Z,28
2018-08-22T16:46:05.520Z,28.1
2018-08-22T16:48:04.752Z,28
2018-08-22T16:50:05.403Z,28
2018-08-22T16:52:05.106Z,28.1
2018-08-22T16:54:07.291Z,28.1
2018-08-22T16:56:10.578Z,28.1
2018-08-22T16:58:05.256Z,28.1
2018-08-22T17:00:04.992Z,28.1
2018-08-22T17:02:04.732Z,28.1
2018-08-22T17:04:05.043Z,28.1
2018-08-22T17:06:07.439Z,28.1
2018-08-22T17:08:07.638Z,28.1
2018-08-22T17:10:05.383Z,28.1
2018-08-22T17:12:05.185Z,28.1
2018-08-22T17:14:04.890Z,28.2
2018-08-22T17:16:04.761Z,28.1
2018-08-22T17:18:07.172Z,28.2
2018-08-22T17:20:07.651Z,28.2
2018-08-22T17:22:07.331Z,28.2
2018-08-22T17:24:05.521Z,28.2
2018-08-22T17:26:05.199Z,28.2
2018-08-22T17:28:04.942Z,28.2
2018-08-22T17:30:04.656Z,28.2
2018-08-22T17:32:05.697Z,28.2
2018-08-22T17:34:04.712Z,28.2
2018-08-22T17:36:05.413Z,28.2
2018-08-22T17:38:05.076Z,28.2
2018-08-22T17:40:07.270Z,28.2
2018-08-22T17:42:04.970Z,28.2
2018-08-22T17:44:04.615Z,28.2
2018-08-22T17:46:05.299Z,28.2
2018-08-22T17:48:07.503Z,28.2
2018-08-22T17:50:05.265Z,28.2
2018-08-22T17:52:07.509Z,28.2
2018-08-22T17:54:05.384Z,28.2
2018-08-22T17:56:05.019Z,28.2
2018-08-22T17:58:04.693Z,28.2
2018-08-22T18:00:07.891Z,28.1
2018-08-22T18:02:10.659Z,28.1
2018-08-22T18:04:05.554Z,28.1
2018-08-22T18:06:10.323Z,28.1
2018-08-22T18:08:05.038Z,28.1
2018-08-22T18:10:07.229Z,28.1
2018-08-22T18:12:04.910Z,28.1
2018-08-22T18:14:04.807Z,28.1
2018-08-22T18:16:05.469Z,28.2
2018-08-22T18:18:04.931Z,28.1
2018-08-22T18:20:06.701Z,28.1
2018-08-22T18:22:07.881Z,28.1
2018-08-22T18:24:05.597Z,28.1
2018-08-22T18:26:07.823Z,28.1
2018-08-22T18:28:04.814Z,28.1
2018-08-22T18:30:05.593Z,28.1
2018-08-22T18:32:07.337Z,28
2018-08-22T18:34:07.160Z,28.1
2018-08-22T18:36:04.878Z,28
2018-08-22T18:38:10.319Z,28
2018-08-22T18:40:05.040Z,28
2018-08-22T18:42:09.788Z,28
2018-08-22T18:44:05.451Z,28
2018-08-22T18:46:05.138Z,28
2018-08-22T18:48:05.401Z,28
2018-08-22T18:50:05.207Z,28
2018-08-22T18:52:05.366Z,28
2018-08-22T18:54:05.292Z,28
2018-08-22T18:56:05.739Z,28
2018-08-22T18:58:05.715Z,28
2018-08-22T19:00:08.144Z,27.9
2018-08-22T19:02:04.827Z,27.9
2018-08-22T19:04:05.521Z,27.9
2018-08-22T19:06:13.099Z,27.8
2018-08-22T19:08:07.602Z,27.8
2018-08-22T19:10:05.320Z,27.8
2018-08-22T19:12:05.273Z,27.9
2018-08-22T19:14:05.153Z,27.8
2018-08-22T19:16:05.455Z,27.8
2018-08-22T19:18:10.370Z,27.8
2018-08-22T19:20:07.554Z,27.8
2018-08-22T19:22:05.251Z,27.8
2018-08-22T19:24:04.969Z,27.7
2018-08-22T19:26:07.501Z,27.6
2018-08-22T19:28:05.174Z,27.6
2018-08-22T19:30:04.909Z,27.7
2018-08-22T19:32:04.668Z,27.7
2018-08-22T19:34:10.424Z,27.7
2018-08-22T19:36:07.640Z,27.7
2018-08-22T19:38:08.806Z,27.7
2018-08-22T19:40:05.467Z,27.7
2018-08-22T19:42:06.167Z,27.7
2018-08-22T19:44:05.042Z,27.7
2018-08-22T19:46:04.693Z,27.7
2018-08-22T19:48:11.519Z,27.6
2018-08-22T19:50:05.377Z,27.6
2018-08-22T19:52:05.809Z,27.6
2018-08-22T19:54:05.521Z,27.5
2018-08-22T19:56:05.234Z,27.5
2018-08-22T19:58:05.010Z,27.4
2018-08-22T20:00:04.826Z,27.5
2018-08-22T20:02:07.374Z,27.5
2018-08-22T20:04:05.000Z,27.5
2018-08-22T20:06:12.571Z,27.5
2018-08-22T20:08:05.242Z,27.5
2018-08-22T20:10:07.721Z,27.5
2018-08-22T20:12:05.545Z,27.5
2018-08-22T20:14:05.336Z,27.5
2018-08-22T20:16:05.022Z,27.4
2018-08-22T20:18:08.448Z,27.4
2018-08-22T20:20:05.200Z,27.4
2018-08-22T20:22:04.942Z,27.4
2018-08-22T20:24:07.826Z,27.4
2018-08-22T20:26:07.987Z,27.5
2018-08-22T20:28:04.637Z,27.5
2018-08-22T20:30:05.323Z,27.6
2018-08-22T20:32:05.027Z,27.5
2018-08-22T20:34:04.694Z,27.5
2018-08-22T20:36:05.450Z,27.5
2018-08-22T20:38:05.353Z,27.5
2018-08-22T20:40:05.068Z,27.5
2018-08-22T20:42:04.807Z,27.5
2018-08-22T20:44:04.727Z,27.5
2018-08-22T20:46:04.846Z,27.5
2018-08-22T20:48:05.501Z,27.5
2018-08-22T20:50:07.686Z,27.5
2018-08-22T20:52:05.556Z,27.5
2018-08-22T20:54:07.780Z,27.5
2018-08-22T20:56:06.493Z,27.5
2018-08-22T20:58:05.296Z,27.5
2018-08-22T21:00:04.994Z,27.5
2018-08-22T21:02:04.782Z,27.4
2018-08-22T21:04:08.034Z,27.4
2018-08-22T21:06:07.353Z,27.4
2018-08-22T21:08:06.312Z,27.4
2018-08-22T21:10:04.916Z,27.4
2018-08-22T21:12:04.664Z,27.4
2018-08-22T21:14:04.978Z,27.5
2018-08-22T21:16:04.991Z,27.5
2018-08-22T21:18:04.907Z,27.5
2018-08-22T21:20:05.131Z,27.5
2018-08-22T21:22:04.826Z,27.5
2018-08-22T21:24:05.534Z,27.5
2018-08-22T21:26:05.235Z,27.5
2018-08-22T21:28:05.055Z,27.5
2018-08-22T21:30:04.741Z,27.4
2018-08-22T21:32:04.955Z,27.5
2018-08-22T21:34:04.640Z,27.5
2018-08-22T21:36:05.358Z,27.4
2018-08-22T21:38:05.078Z,27.4
2018-08-22T21:40:07.501Z,27.4
2018-08-22T21:42:05.283Z,27.4
2018-08-22T21:44:04.974Z,27.4
2018-08-22T21:46:11.699Z,27.4
2018-08-22T21:48:05.220Z,27.4
2018-08-22T21:50:04.912Z,27.3
2018-08-22T21:52:05.562Z,27.4
2018-08-22T21:54:07.459Z,27.3
2018-08-22T21:56:05.454Z,27.3
2018-08-22T21:58:07.844Z,27.3
2018-08-22T22:00:05.096Z,27.4
2018-08-22T22:02:04.782Z,27.4
2018-08-22T22:04:05.517Z,27.4
2018-08-22T22:06:05.204Z,27.4
2018-08-22T22:08:07.442Z,27.4
2018-08-22T22:10:05.346Z,27.3
2018-08-22T22:12:08.197Z,27.3
2018-08-22T22:14:04.896Z,27.3
2018-08-22T22:16:05.611Z,27.3
2018-08-22T22:18:10.648Z,27.3
2018-08-22T22:20:13.170Z,27.2
2018-08-22T22:22:04.873Z,27.2
2018-08-22T22:24:05.628Z,27.3
2018-08-22T22:26:12.898Z,27.2
2018-08-22T22:28:05.557Z,27.2
2018-08-22T22:30:07.929Z,27.2
2018-08-22T22:32:07.719Z,27.2
2018-08-22T22:34:15.535Z,27.2
2018-08-22T22:36:10.322Z,27.2
2018-08-22T22:38:05.004Z,27.2
2018-08-22T22:40:04.696Z,27.2
2018-08-22T22:42:05.499Z,27.2
2018-08-22T22:44:05.179Z,27.2
2018-08-22T22:46:04.847Z,27.1
2018-08-22T22:48:05.501Z,27.1
2018-08-22T22:50:09.784Z,27.1
2018-08-22T22:52:05.471Z,27.1
2018-08-22T22:54:05.176Z,27.1
2018-08-22T22:56:04.848Z,27.1
2018-08-22T22:58:05.812Z,27.1
2018-08-22T23:00:05.500Z,27.2
2018-08-22T23:02:07.272Z,27.1
2018-08-22T23:04:07.628Z,27.1
2018-08-22T23:06:07.303Z,27.1
2018-08-22T23:08:05.013Z,27.1
2018-08-22T23:10:04.749Z,27.1
2018-08-22T23:12:05.465Z,27.1
2018-08-22T23:14:05.137Z,27.1
2018-08-22T23:16:04.994Z,27.1
2018-08-22T23:18:04.869Z,27.1
2018-08-22T23:20:05.095Z,27.1
2018-08-22T23:22:04.743Z,27.1
2018-08-22T23:24:05.529Z,27.1
2018-08-22T23:26:05.226Z,27
2018-08-22T23:28:07.506Z,27.1
2018-08-22T23:30:05.202Z,27.1
2018-08-22T23:32:04.845Z,27.1
2018-08-22T23:34:05.521Z,27
2018-08-22T23:36:05.603Z,27
2018-08-22T23:38:05.300Z,27
2018-08-22T23:40:05.016Z,27
2018-08-22T23:42:04.749Z,27
2018-08-22T23:44:05.585Z,27
2018-08-22T23:46:05.300Z,27
2018-08-22T23:48:05.017Z,27
2018-08-22T23:50:09.832Z,26.9
2018-08-22T23:52:05.741Z,27
2018-08-22T23:54:05.125Z,27
2018-08-22T23:56:04.926Z,26.9
2018-08-22T23:58:09.781Z,26.9
